Harlan Municipal Airport
Tuesday 9:35 AM
Weather Sunny
VFR
Temperature 72°
Dew Point 54°
Feels Like 72°
Relative Humidity 53
%
Visibility 10
mi
Pressure 1019.3
mb
Wind Direction W
Wind Speed 14
mph
Last Hour Precip 0.00
"
KHNR 281435Z AUTO 28012KT 10SM CLR 22/12 A3010 RMK A01

Recent Observations

Time Present Weather Temp DP Feels RH% Vsby Pressure Ceiling Direction Speed Gust 1h Precip
9:35AM
VFR
72° 54° 72° 53
%
10
mi
1019.3
mb
None W 14
mph
0.00"
KHNR 281435Z AUTO 28012KT 10SM CLR 22/12 A3010 RMK A01
9:15AM
VFR
70° 54° 70° 56
%
10
mi
1019.0
mb
None WNW 13
mph
0.00"
KHNR 281415Z AUTO 29011KT 10SM CLR 21/12 A3009 RMK A01
8:55AM
VFR
68° 54° 68° 60
%
10
mi
1019.3
mb
None W 12
mph
0.00"
KHNR 281355Z AUTO 28010KT 10SM CLR 20/12 A3010 RMK A01
8:35AM
VFR
66° 55° 66° 68
%
10
mi
1019.3
mb
None VRB 5
mph
0.00"
KHNR 281335Z AUTO VRB04KT 10SM CLR 19/13 A3010 RMK A01
8:15AM
VFR
61° 55° 61° 82
%
10
mi
1019.3
mb
None None Calm 0.00"
KHNR 281315Z AUTO 00000KT 10SM CLR 16/13 A3010 RMK A01
7:55AM
VFR
61° 54° 61° 77
%
10
mi
1019.3
mb
None W 6
mph
0.00"
KHNR 281255Z AUTO 28005KT 10SM CLR 16/12 A3010 RMK A01
7:35AM
VFR
57° 54° 57° 88
%
10
mi
1019.3
mb
None None Calm 0.00"
KHNR 281235Z AUTO 00000KT 10SM CLR 14/12 A3010 RMK A01
7:15AM
VFR
54° 52° 54° 94
%
10
mi
1019.3
mb
None S 3
mph
0.00"
KHNR 281215Z AUTO 19003KT 10SM CLR 12/11 A3010 RMK A01
6:55AM
VFR
52° 52° 52° 100
%
10
mi
1019.3
mb
None None Calm 0.00"
KHNR 281155Z AUTO 00000KT 10SM CLR 11/11 A3010 RMK A01
6:35AM
VFR
52° 50° 52° 94
%
10
mi
1019.0
mb
None None Calm 0.00"
KHNR 281135Z AUTO 00000KT 10SM CLR 11/10 A3009 RMK A01
6:15AM
VFR
50° 48° 50° 93
%
10
mi
1019.0
mb
None None Calm 0.00"
KHNR 281115Z AUTO 00000KT 10SM CLR 10/09 A3009 RMK A01
5:55AM
VFR
48° 48° 46° 100
%
10
mi
1019.0
mb
None S 5
mph
0.00"
KHNR 281055Z AUTO 19004KT 10SM CLR 09/09 A3009 RMK A01
5:35AM
VFR
50° 48° 50° 93
%
10
mi
1019.0
mb
None None Calm 0.00"
KHNR 281035Z AUTO 00000KT 10SM CLR 10/09 A3009 RMK A01
5:15AM
VFR
50° 48° 50° 93
%
10
mi
1019.0
mb
None None Calm 0.00"
KHNR 281015Z AUTO 00000KT 10SM CLR 10/09 A3009 RMK A01
4:55AM
VFR
50° 50° 50° 100
%
10
mi
1018.6
mb
None None Calm 0.00"
KHNR 280955Z AUTO 00000KT 10SM CLR 10/10 A3008 RMK A01
4:35AM
VFR
52° 50° 52° 94
%
10
mi
1018.6
mb
None None Calm 0.00"
KHNR 280935Z AUTO 00000KT 10SM CLR 11/10 A3008 RMK A01
4:15AM
VFR
52° 50° 52° 94
%
10
mi
1018.3
mb
None None Calm 0.00"
KHNR 280915Z AUTO 00000KT 10SM CLR 11/10 A3007 RMK A01
3:55AM
VFR
54° 50° 54° 88
%
10
mi
1017.9
mb
None N 6
mph
0.00"
KHNR 280855Z AUTO 36005KT 10SM CLR 12/10 A3006 RMK A01
3:35AM
VFR
54° 50° 54° 88
%
10
mi
1017.9
mb
None NNE 5
mph
0.00"
KHNR 280835Z AUTO 02004KT 10SM CLR 12/10 A3006 RMK A01
3:15AM
VFR
55° 50° 55° 82
%
10
mi
1017.9
mb
None N 5
mph
0.00"
KHNR 280815Z AUTO 01004KT 10SM CLR 13/10 A3006 RMK A01
Click here to show this page without METARs/TAFs included